Time;durP1;ratioP1;P1;durP2;ratioP2;P2;SDS_P1;SDS_P2;PMS_P1;PMS_P2;Temp;Humidity;BMP_temperature;BMP_pressure;BME280_temperature;BME280_humidity;BME280_pressure;Samples;Min_cycle;Max_cycle;Signal;HPM_P1;HPM_P2
2022/10/19 00:02:12;;;;;;;1.03;1.03;;;;;;;8.93;73.94;100087.69;5022196;28;20207;-69
2022/10/19 00:04:39;;;;;;;0.50;0.50;;;;;;;8.93;73.76;100082.56;5030269;28;20205;-69
2022/10/19 00:07:06;;;;;;;0.60;0.60;;;;;;;8.86;74.35;100078.41;5032044;28;20221;-69
2022/10/19 00:09:32;;;;;;;0.90;0.90;;;;;;;8.63;74.04;100077.81;5028648;28;20197;-69
2022/10/19 00:12:01;;;;;;;0.50;0.50;;;;;;;8.57;74.58;100072.78;5034049;28;20648;-69
2022/10/19 00:14:28;;;;;;;0.53;0.53;;;;;;;8.48;75.02;100060.09;5027699;28;20202;-69
2022/10/19 00:16:55;;;;;;;0.70;0.70;;;;;;;8.35;75.35;100067.91;5030672;28;20550;-69
2022/10/19 00:19:23;;;;;;;0.60;0.60;;;;;;;8.23;75.82;100060.34;5027415;28;20197;-70
2022/10/19 00:21:51;;;;;;;0.63;0.63;;;;;;;8.19;75.88;100060.38;5033511;28;20206;-69
2022/10/19 00:24:19;;;;;;;0.77;0.77;;;;;;;8.21;76.35;100051.00;5022077;28;20194;-69
2022/10/19 00:26:45;;;;;;;0.63;0.63;;;;;;;8.21;76.04;100051.00;5033762;28;20208;-69
2022/10/19 00:29:14;;;;;;;0.67;0.67;;;;;;;8.20;76.56;100047.63;5023272;28;20220;-70
2022/10/19 00:31:42;;;;;;;0.63;0.63;;;;;;;8.26;76.38;100034.78;5019239;28;20218;-69
2022/10/19 00:34:09;;;;;;;0.77;0.77;;;;;;;8.26;76.03;100032.22;5027982;28;20206;-69
2022/10/19 00:36:37;;;;;;;0.67;0.67;;;;;;;8.09;76.00;100006.00;5033052;28;20654;-69
2022/10/19 00:39:06;;;;;;;0.77;0.77;;;;;;;8.24;75.67;100036.47;5029956;28;20198;-70
2022/10/19 00:41:35;;;;;;;0.50;0.50;;;;;;;8.21;76.12;100038.22;5030561;28;20197;-69
2022/10/19 00:44:05;;;;;;;0.63;0.63;;;;;;;8.22;76.58;100032.25;5032596;28;20287;-69
2022/10/19 00:46:35;;;;;;;0.60;0.60;;;;;;;8.23;75.87;100024.59;5018576;28;20209;-70
2022/10/19 00:49:05;;;;;;;0.70;0.70;;;;;;;8.14;75.26;100008.53;5025426;28;20705;-70
2022/10/19 00:51:33;;;;;;;0.63;0.63;;;;;;;8.20;75.15;100019.53;5030219;28;20304;-70
2022/10/19 00:54:03;;;;;;;0.60;0.60;;;;;;;8.21;75.33;100016.09;5024459;28;20297;-70
2022/10/19 00:56:30;;;;;;;0.90;0.90;;;;;;;8.19;75.30;100007.59;5028032;28;20585;-69
2022/10/19 00:58:57;;;;;;;0.60;0.60;;;;;;;8.08;74.93;99994.09;5033316;28;20573;-69
2022/10/19 01:01:26;;;;;;;0.63;0.63;;;;;;;8.12;75.21;100003.41;5028296;28;20625;-69
2022/10/19 01:03:55;;;;;;;0.63;0.63;;;;;;;8.11;75.32;99999.16;5030525;28;20743;-69
2022/10/19 01:06:23;;;;;;;0.70;0.70;;;;;;;8.10;75.25;99991.53;5033398;28;20228;-69
2022/10/19 01:08:50;;;;;;;0.53;0.53;;;;;;;8.08;75.22;99983.88;5019877;28;20198;-69
2022/10/19 01:11:26;;;;;;;0.60;0.60;;;;;;;8.05;75.39;99983.91;5025462;28;20323;-69
2022/10/19 01:14:04;;;;;;;0.50;0.50;;;;;;;8.06;76.03;99979.66;5019604;28;20201;-69
2022/10/19 01:16:43;;;;;;;0.73;0.73;;;;;;;8.05;75.96;99980.50;5013554;28;20217;-69
2022/10/19 01:19:30;;;;;;;0.63;0.63;;;;;;;8.03;76.74;99975.44;5013047;28;20206;-69
2022/10/19 01:22:10;;;;;;;0.67;0.67;;;;;;;8.02;76.59;99983.94;5013182;28;20201;-69
2022/10/19 01:24:51;;;;;;;0.57;0.57;;;;;;;8.03;76.64;99979.69;5013503;28;20197;-69
2022/10/19 01:27:43;;;;;;;0.70;0.70;;;;;;;7.99;76.87;99973.78;5012135;28;20205;-69
2022/10/19 01:30:17;;;;;;;0.60;0.60;;;;;;;8.00;76.62;99975.47;5011714;28;20221;-69
2022/10/19 01:33:01;;;;;;;0.63;0.63;;;;;;;7.97;76.53;99975.50;5020581;28;20212;-69
2022/10/19 01:35:36;;;;;;;0.70;0.70;;;;;;;7.92;76.96;99972.13;5032342;28;20208;-69
2022/10/19 01:38:12;;;;;;;0.70;0.70;;;;;;;7.82;77.33;99968.84;5012877;28;20281;-69
2022/10/19 01:40:47;;;;;;;0.50;0.50;;;;;;;7.85;77.84;99966.25;5012105;28;20222;-69
2022/10/19 01:43:23;;;;;;;0.60;0.60;;;;;;;7.84;78.42;99971.38;5011864;28;20628;-69
2022/10/19 01:45:58;;;;;;;0.60;0.60;;;;;;;7.82;77.86;99966.28;5012628;28;20590;-69
2022/10/19 01:48:30;;;;;;;0.60;0.60;;;;;;;7.80;78.13;99951.84;5017882;28;20220;-69
2022/10/19 01:51:00;;;;;;;0.57;0.57;;;;;;;7.79;78.30;99962.91;5012484;28;20301;-70
2022/10/19 01:53:29;;;;;;;0.70;0.70;;;;;;;7.75;78.61;99963.81;5012647;28;20217;-70
2022/10/19 01:55:58;;;;;;;0.80;0.80;;;;;;;7.73;78.26;99965.53;5012778;28;20586;-69
2022/10/19 01:58:28;;;;;;;0.83;0.83;;;;;;;7.70;78.01;99960.44;5011390;28;20210;-69
2022/10/19 02:01:00;;;;;;;0.50;0.50;;;;;;;7.52;78.06;99935.97;5012491;28;20252;-69
2022/10/19 02:03:28;;;;;;;0.50;0.50;;;;;;;7.62;78.17;99949.50;5011931;28;20633;-69
2022/10/19 02:05:56;;;;;;;0.77;0.77;;;;;;;7.62;78.24;99944.38;5016623;28;20236;-69
2022/10/19 02:08:28;;;;;;;0.70;0.70;;;;;;;7.46;78.74;99925.84;5020095;28;20202;-69
2022/10/19 02:10:56;;;;;;;0.60;0.60;;;;;;;7.49;78.89;99930.91;5014852;28;20689;-69
2022/10/19 02:13:26;;;;;;;0.60;0.60;;;;;;;7.50;79.38;99931.72;5023160;28;20202;-69
2022/10/19 02:15:57;;;;;;;0.60;0.60;;;;;;;7.50;79.15;99936.81;5010207;28;21032;-69
2022/10/19 02:18:31;;;;;;;0.67;0.67;;;;;;;7.47;79.50;99931.75;5019997;28;20201;-70
2022/10/19 02:20:58;;;;;;;0.60;0.60;;;;;;;7.34;79.80;99925.91;5018989;28;20666;-69
2022/10/19 02:23:27;;;;;;;0.60;0.60;;;;;;;7.42;80.13;99933.50;5011782;28;20204;-69
2022/10/19 02:25:54;;;;;;;0.67;0.67;;;;;;;7.40;80.40;99931.81;5016095;28;20256;-69
2022/10/19 02:28:22;;;;;;;0.60;0.60;;;;;;;7.36;80.01;99925.06;5029412;28;20674;-69
2022/10/19 02:30:50;;;;;;;0.60;0.60;;;;;;;7.34;80.52;99926.78;5031072;28;20648;-69
2022/10/19 02:33:18;;;;;;;0.60;0.60;;;;;;;7.30;80.34;99922.53;5032015;28;20628;-69
2022/10/19 02:35:45;;;;;;;0.60;0.60;;;;;;;7.26;80.28;99920.06;5024210;28;20206;-69
2022/10/19 02:38:16;;;;;;;0.80;0.80;;;;;;;7.27;80.47;99927.69;5015060;28;20566;-69
2022/10/19 02:40:50;;;;;;;1.00;1.00;;;;;;;7.23;80.79;99917.53;5010936;28;20209;-69
2022/10/19 02:43:21;;;;;;;0.70;0.70;;;;;;;7.20;80.75;99913.31;5004518;28;20678;-69
2022/10/19 02:45:54;;;;;;;0.70;0.70;;;;;;;7.18;80.94;99903.97;5010898;28;20701;-69
2022/10/19 02:48:26;;;;;;;0.70;0.70;;;;;;;7.24;80.77;99917.50;5024825;28;20221;-69
2022/10/19 02:50:52;;;;;;;0.70;0.70;;;;;;;7.21;80.64;99911.56;5029061;28;20217;-70
2022/10/19 02:53:19;;;;;;;0.70;0.70;;;;;;;7.23;80.92;99913.28;5016230;28;20214;-69
2022/10/19 02:55:49;;;;;;;0.73;0.73;;;;;;;7.21;81.46;99912.44;5031576;28;20198;-69
2022/10/19 02:58:16;;;;;;;0.60;0.60;;;;;;;7.23;81.26;99913.28;5031371;28;20205;-70
2022/10/19 03:00:43;;;;;;;1.33;1.33;;;;;;;7.24;80.92;99904.75;5022101;28;20204;-69
2022/10/19 03:03:10;;;;;;;0.63;0.63;;;;;;;7.18;81.16;99886.97;5031319;28;20225;-69
2022/10/19 03:05:38;;;;;;;0.80;0.80;;;;;;;7.19;80.81;99901.41;5019567;28;20300;-69
2022/10/19 03:08:05;;;;;;;0.63;0.63;;;;;;;7.19;80.84;99903.97;5020799;28;20574;-69
2022/10/19 03:10:32;;;;;;;0.53;0.53;;;;;;;7.16;81.07;99896.34;5026128;28;20586;-69
2022/10/19 03:12:59;;;;;;;0.67;0.67;;;;;;;7.18;80.91;99903.97;5011201;28;20202;-69
2022/10/19 03:15:27;;;;;;;0.70;0.70;;;;;;;7.18;80.82;99894.63;5014922;28;20760;-69
2022/10/19 03:17:55;;;;;;;0.63;0.63;;;;;;;7.17;80.69;99892.91;5023913;28;20734;-69
2022/10/19 03:20:22;;;;;;;0.67;0.67;;;;;;;7.11;81.28;99895.50;5010788;28;20516;-69
2022/10/19 03:22:51;;;;;;;1.23;1.23;;;;;;;7.05;81.35;99887.91;5028537;28;20624;-70
2022/10/19 03:25:18;;;;;;;0.60;0.60;;;;;;;7.02;81.80;99887.94;5013333;28;20237;-69
2022/10/19 03:27:44;;;;;;;0.77;0.77;;;;;;;6.92;81.98;99875.28;5030023;28;20194;-69
2022/10/19 03:30:11;;;;;;;0.87;0.87;;;;;;;6.96;82.07;99888.00;5013403;28;20198;-69
2022/10/19 03:32:38;;;;;;;0.70;0.70;;;;;;;6.92;82.41;99891.41;5016537;28;20213;-69
2022/10/19 03:35:06;;;;;;;0.70;0.70;;;;;;;6.88;82.89;99888.03;5016091;28;20670;-69
2022/10/19 03:37:33;;;;;;;0.80;0.80;;;;;;;6.83;83.09;99883.84;5010916;28;20194;-69
2022/10/19 03:40:01;;;;;;;0.60;0.60;;;;;;;6.79;83.94;99892.38;5010396;28;20213;-69
2022/10/19 03:42:28;;;;;;;0.87;0.87;;;;;;;6.75;83.92;99878.81;5009189;28;20209;-70
2022/10/19 03:44:55;;;;;;;0.63;0.63;;;;;;;6.71;84.39;99886.50;5010184;28;20209;-69
2022/10/19 03:47:22;;;;;;;0.73;0.73;;;;;;;6.69;84.66;99880.53;5010483;28;20205;-69
2022/10/19 03:49:50;;;;;;;0.90;0.90;;;;;;;6.48;85.35;99858.63;5010785;28;20198;-70
2022/10/19 03:52:17;;;;;;;0.70;0.70;;;;;;;6.50;85.62;99871.34;5010880;28;20214;-69
2022/10/19 03:54:44;;;;;;;0.60;0.60;;;;;;;6.41;85.84;99872.25;5019557;28;20601;-69
2022/10/19 03:57:12;;;;;;;0.90;0.90;;;;;;;6.33;86.12;99859.56;5030364;28;20201;-69
2022/10/19 03:59:39;;;;;;;0.80;0.80;;;;;;;6.42;86.47;99873.09;5015984;28;20205;-69
2022/10/19 04:02:06;;;;;;;0.70;0.70;;;;;;;6.39;86.63;99868.03;5027391;28;20198;-70
2022/10/19 04:04:33;;;;;;;0.73;0.73;;;;;;;6.35;87.05;99862.09;5027978;28;20193;-69
2022/10/19 04:07:00;;;;;;;0.80;0.80;;;;;;;6.38;86.67;99861.22;5030398;28;20596;-69
2022/10/19 04:09:27;;;;;;;0.60;0.60;;;;;;;6.31;86.70;99860.41;5011000;28;20205;-69
2022/10/19 04:11:54;;;;;;;0.80;0.80;;;;;;;6.36;86.96;99857.84;5006923;28;20248;-69
2022/10/19 04:14:22;;;;;;;1.00;1.00;;;;;;;6.40;86.50;99857.00;5025671;28;20208;-69
2022/10/19 04:16:49;;;;;;;0.80;0.80;;;;;;;6.41;86.23;99861.22;5013834;28;20248;-69
2022/10/19 04:19:16;;;;;;;0.70;0.70;;;;;;;6.42;85.69;99852.72;5010585;28;20285;-70
2022/10/19 04:21:44;;;;;;;0.70;0.70;;;;;;;6.45;85.73;99852.69;5009792;28;20289;-69
2022/10/19 04:24:13;;;;;;;0.73;0.73;;;;;;;6.44;85.51;99853.56;5011230;28;20264;-69
2022/10/19 04:26:42;;;;;;;0.60;0.60;;;;;;;6.47;85.04;99856.06;5009710;28;20619;-69
2022/10/19 04:29:10;;;;;;;0.80;0.80;;;;;;;6.52;84.80;99854.38;5010556;28;20198;-69
2022/10/19 04:31:39;;;;;;;0.60;0.60;;;;;;;6.41;85.15;99840.84;5010306;28;20217;-69
2022/10/19 04:34:06;;;;;;;0.70;0.70;;;;;;;6.32;84.92;99832.41;5008348;28;20211;-70
2022/10/19 04:36:33;;;;;;;0.60;0.60;;;;;;;6.40;85.20;99832.34;5007940;28;20202;-69
2022/10/19 04:39:00;;;;;;;0.90;0.90;;;;;;;6.49;85.27;99844.19;5024482;28;20570;-69
2022/10/19 04:41:27;;;;;;;0.80;0.80;;;;;;;6.51;85.15;99837.38;5005293;28;20209;-69
2022/10/19 04:43:59;;;;;;;0.93;0.93;;;;;;;6.51;85.48;99835.69;5008861;28;20213;-69
2022/10/19 04:46:26;;;;;;;0.70;0.70;;;;;;;6.52;84.83;99839.09;5018441;28;20203;-69
2022/10/19 04:48:56;;;;;;;0.60;0.60;;;;;;;6.52;84.93;99834.00;5010534;28;20206;-69
2022/10/19 04:51:23;;;;;;;0.90;0.90;;;;;;;6.55;85.05;99839.91;5010307;28;20210;-69
2022/10/19 04:53:50;;;;;;;0.80;0.80;;;;;;;6.56;84.71;99850.94;5010488;28;20214;-69
2022/10/19 04:56:20;;;;;;;0.70;0.70;;;;;;;6.53;85.03;99841.59;5014079;28;20198;-69
2022/10/19 04:58:47;;;;;;;0.67;0.67;;;;;;;6.54;85.01;99838.22;5013647;28;20682;-69
2022/10/19 05:01:15;;;;;;;0.60;0.60;;;;;;;6.57;84.64;99843.28;5013516;28;20211;-69
2022/10/19 05:03:42;;;;;;;0.60;0.60;;;;;;;6.60;85.14;99837.31;5020178;28;20197;-69
2022/10/19 05:06:11;;;;;;;0.70;0.70;;;;;;;6.61;84.71;99833.91;5033400;28;20225;-69
2022/10/19 05:08:38;;;;;;;0.70;0.70;;;;;;;6.62;85.21;99841.56;5019802;28;20214;-69
2022/10/19 05:11:07;;;;;;;0.90;0.90;;;;;;;6.63;85.09;99844.94;5013089;28;20689;-69
2022/10/19 05:13:35;;;;;;;0.90;0.90;;;;;;;6.64;84.97;99838.97;5026270;28;20697;-69
2022/10/19 05:16:04;;;;;;;0.60;0.60;;;;;;;6.66;84.87;99827.91;5030387;28;20213;-69
2022/10/19 05:18:31;;;;;;;0.60;0.60;;;;;;;6.68;85.03;99833.03;5017165;28;20209;-69
2022/10/19 05:21:02;;;;;;;0.50;0.50;;;;;;;6.64;85.38;99827.09;5024125;28;20194;-69
2022/10/19 05:23:31;;;;;;;1.07;1.07;;;;;;;6.67;85.37;99836.41;5010260;28;20210;-69
2022/10/19 05:26:02;;;;;;;0.70;0.70;;;;;;;6.66;85.60;99827.91;5015079;28;20210;-69
2022/10/19 05:28:30;;;;;;;0.53;0.53;;;;;;;6.72;85.81;99832.16;5009773;28;20206;-69
2022/10/19 05:31:04;;;;;;;0.97;0.97;;;;;;;6.72;86.49;99835.50;5010172;28;20232;-69
2022/10/19 05:33:31;;;;;;;0.60;0.60;;;;;;;6.72;86.62;99837.25;5007019;28;20217;-69
2022/10/19 05:35:57;;;;;;;0.60;0.60;;;;;;;6.72;86.61;99837.25;5009422;28;20578;-69
2022/10/19 05:38:24;;;;;;;0.80;0.80;;;;;;;6.64;87.37;99816.06;5011637;28;20198;-69
2022/10/19 05:40:52;;;;;;;0.70;0.70;;;;;;;6.78;87.26;99835.50;5015214;28;20210;-69
2022/10/19 05:43:19;;;;;;;0.63;0.63;;;;;;;6.75;87.73;99829.56;5016144;28;20191;-69
2022/10/19 05:45:46;;;;;;;0.90;0.90;;;;;;;6.81;88.05;99839.72;5012993;28;20209;-69
2022/10/19 05:48:13;;;;;;;0.80;0.80;;;;;;;6.84;89.25;99838.00;5006401;28;20205;-69
2022/10/19 05:50:40;;;;;;;0.90;0.90;;;;;;;6.90;89.81;99837.09;5017796;28;20228;-69
2022/10/19 05:53:06;;;;;;;0.70;0.70;;;;;;;6.94;89.91;99832.81;5015402;28;20400;-72
2022/10/19 05:55:35;;;;;;;1.20;1.20;;;;;;;7.01;90.51;99830.16;5023217;28;20204;-70
2022/10/19 05:58:03;;;;;;;0.70;0.70;;;;;;;7.07;91.02;99829.28;5029130;28;20296;-68
2022/10/19 06:00:30;;;;;;;0.70;0.70;;;;;;;7.11;91.56;99834.31;5016816;28;20249;-69
2022/10/19 06:02:57;;;;;;;0.60;0.60;;;;;;;7.14;92.21;99836.84;5028355;28;20190;-70
2022/10/19 06:05:24;;;;;;;0.63;0.63;;;;;;;7.21;93.26;99841.03;5010814;28;20670;-73
2022/10/19 06:07:51;;;;;;;0.50;0.50;;;;;;;7.31;93.49;99837.53;5030734;28;20193;-74
2022/10/19 06:10:19;;;;;;;0.60;0.60;;;;;;;7.36;93.26;99842.59;5034316;28;20213;-76
2022/10/19 06:12:46;;;;;;;0.60;0.60;;;;;;;7.42;93.12;99832.34;5038157;28;20692;-75
2022/10/19 06:15:15;;;;;;;1.00;1.00;;;;;;;7.51;93.63;99842.44;5024446;28;20202;-74
2022/10/19 06:17:41;;;;;;;0.70;0.70;;;;;;;7.55;92.83;99835.59;5033710;28;20732;-74
2022/10/19 06:20:09;;;;;;;0.50;0.50;;;;;;;7.64;93.61;99832.94;5032221;28;20217;-75
2022/10/19 06:22:36;;;;;;;0.57;0.57;;;;;;;7.77;93.28;99824.28;5032761;28;20205;-74
2022/10/19 06:25:03;;;;;;;0.90;0.90;;;;;;;7.84;91.94;99831.00;5027535;28;20209;-80
2022/10/19 06:27:31;;;;;;;0.50;0.50;;;;;;;7.93;91.95;99821.53;5031685;28;20213;-76
2022/10/19 06:29:58;;;;;;;0.60;0.60;;;;;;;7.72;91.16;99785.22;5031966;28;20225;-76
2022/10/19 06:32:27;;;;;;;0.63;0.63;;;;;;;8.10;91.55;99834.06;5032298;28;20213;-75
2022/10/19 06:34:54;;;;;;;0.50;0.50;;;;;;;8.17;90.97;99820.38;5030578;28;20197;-76
2022/10/19 06:37:20;;;;;;;0.70;0.70;;;;;;;8.23;89.95;99827.94;5031747;28;20244;-77
2022/10/19 06:39:47;;;;;;;0.67;0.67;;;;;;;8.34;89.11;99823.53;5031914;28;20197;-77
2022/10/19 06:42:14;;;;;;;0.60;0.60;;;;;;;8.53;88.07;99815.63;5032027;28;20201;-77
2022/10/19 06:44:41;;;;;;;0.60;0.60;;;;;;;8.64;87.70;99827.34;5031901;28;20201;-78
2022/10/19 06:47:08;;;;;;;0.50;0.50;;;;;;;8.70;87.49;99826.41;5031744;28;20205;-77
2022/10/19 06:49:36;;;;;;;0.80;0.80;;;;;;;8.76;86.81;99818.63;5032060;28;20212;-75
2022/10/19 06:52:04;;;;;;;0.50;0.50;;;;;;;8.75;86.56;99804.19;5031847;28;20235;-74
2022/10/19 06:54:31;;;;;;;0.70;0.70;;;;;;;8.96;86.33;99814.03;5033643;28;20193;-74
2022/10/19 06:56:59;;;;;;;0.63;0.63;;;;;;;9.15;84.91;99810.28;5033549;28;20201;-74
2022/10/19 06:59:26;;;;;;;0.57;0.57;;;;;;;9.26;84.71;99816.06;5036414;28;20303;-74
2022/10/19 07:01:53;;;;;;;0.60;0.60;;;;;;;9.48;83.95;99814.78;5032114;28;20202;-79
2022/10/19 07:04:19;;;;;;;0.57;0.57;;;;;;;9.65;82.76;99811.06;5035126;28;20215;-75
2022/10/19 07:06:47;;;;;;;0.60;0.60;;;;;;;10.00;81.34;99803.50;5034230;28;20239;-74
2022/10/19 07:09:14;;;;;;;0.50;0.50;;;;;;;10.17;80.28;99804.00;5030822;28;20640;-72
2022/10/19 07:11:41;;;;;;;0.70;0.70;;;;;;;10.49;78.33;99799.00;5029603;28;20208;-69
2022/10/19 07:14:09;;;;;;;0.73;0.73;;;;;;;10.82;76.99;99797.34;5031853;28;20236;-71
2022/10/19 07:16:35;;;;;;;0.50;0.50;;;;;;;11.07;76.45;99792.44;5031102;28;20201;-70
2022/10/19 07:19:02;;;;;;;0.70;0.70;;;;;;;11.28;74.96;99796.97;5031072;28;20669;-71
2022/10/19 07:21:29;;;;;;;0.60;0.60;;;;;;;11.51;72.97;99793.78;5032546;28;20699;-71
2022/10/19 07:23:57;;;;;;;0.50;0.50;;;;;;;11.81;71.76;99798.13;5030586;28;20197;-66
2022/10/19 07:26:29;;;;;;;1.43;1.43;;;;;;;12.07;69.77;99784.50;5034762;28;20202;-70
2022/10/19 07:28:57;;;;;;;0.40;0.40;;;;;;;12.30;68.99;99792.34;5030355;28;20695;-71
2022/10/19 07:31:25;;;;;;;0.50;0.50;;;;;;;12.46;67.69;99796.13;5031322;28;20201;-71
2022/10/19 07:33:53;;;;;;;0.70;0.70;;;;;;;12.70;65.32;99793.69;5034345;28;20217;-70
2022/10/19 07:36:20;;;;;;;0.73;0.73;;;;;;;12.99;64.87;99788.38;5033663;28;20624;-70
2022/10/19 07:38:47;;;;;;;0.60;0.60;;;;;;;13.12;63.82;99779.38;5032616;28;20209;-74
2022/10/19 07:41:17;;;;;;;0.50;0.50;;;;;;;13.36;62.33;99778.53;5030663;28;20212;-70
2022/10/19 07:43:45;;;;;;;0.60;0.60;;;;;;;13.54;61.45;99775.28;5032936;28;20589;-69
2022/10/19 07:46:14;;;;;;;0.60;0.60;;;;;;;13.76;61.18;99777.09;5035066;28;20202;-69
2022/10/19 07:48:42;;;;;;;0.60;0.60;;;;;;;13.95;60.11;99783.25;5033120;28;20201;-69
2022/10/19 07:51:10;;;;;;;0.50;0.50;;;;;;;14.12;58.66;99775.69;5036284;28;20677;-67
2022/10/19 07:53:38;;;;;;;0.60;0.60;;;;;;;14.38;57.37;99778.13;5030521;28;20673;-68
2022/10/19 07:56:06;;;;;;;0.40;0.40;;;;;;;14.52;57.59;99767.25;5031573;28;20267;-69
2022/10/19 07:58:35;;;;;;;0.40;0.40;;;;;;;14.76;57.12;99762.84;5028865;28;20198;-69
2022/10/19 08:01:02;;;;;;;0.53;0.53;;;;;;;14.91;57.40;99754.47;5031081;28;20201;-69
2022/10/19 08:03:29;;;;;;;0.40;0.40;;;;;;;15.06;56.12;99756.38;5030620;28;20193;-70
2022/10/19 08:06:00;;;;;;;0.73;0.63;;;;;;;15.22;55.69;99757.41;5033664;28;20233;-69
2022/10/19 08:08:27;;;;;;;1.40;1.40;;;;;;;15.39;56.27;99760.09;5031639;28;20700;-69
2022/10/19 08:10:53;;;;;;;0.67;0.67;;;;;;;15.52;55.79;99756.09;5029286;28;20216;-69
2022/10/19 08:13:21;;;;;;;0.67;0.67;;;;;;;15.66;54.57;99755.50;5030541;28;20212;-70
2022/10/19 08:15:49;;;;;;;0.40;0.40;;;;;;;15.85;56.48;99747.72;5030780;28;20247;-68
2022/10/19 08:18:17;;;;;;;0.80;0.80;;;;;;;15.96;53.55;99741.13;5013225;28;20265;-69
2022/10/19 08:20:44;;;;;;;0.50;0.50;;;;;;;16.15;52.11;99736.81;5030378;28;20198;-70
2022/10/19 08:23:11;;;;;;;0.67;0.67;;;;;;;16.26;52.68;99733.69;5030422;28;20212;-70
2022/10/19 08:25:38;;;;;;;0.43;0.43;;;;;;;16.43;52.92;99731.13;5030655;28;20248;-69
2022/10/19 08:28:04;;;;;;;0.57;0.57;;;;;;;16.57;51.70;99726.16;5033882;28;20707;-69
2022/10/19 08:30:31;;;;;;;0.50;0.50;;;;;;;16.68;52.07;99726.44;5032988;28;20212;-67
2022/10/19 08:32:59;;;;;;;0.87;0.87;;;;;;;16.68;52.41;99723.88;5034257;28;20224;-69
2022/10/19 08:35:26;;;;;;;0.93;0.83;;;;;;;16.87;53.69;99720.34;5034531;28;20202;-70
2022/10/19 08:37:53;;;;;;;1.57;0.87;;;;;;;17.04;53.63;99720.31;5033656;28;20695;-70
2022/10/19 08:40:24;;;;;;;0.60;0.60;;;;;;;17.25;51.51;99721.81;5030574;28;20208;-70
2022/10/19 08:42:57;;;;;;;0.80;0.80;;;;;;;17.35;50.74;99711.81;5038312;28;20216;-70
2022/10/19 08:45:34;;;;;;;0.50;0.50;;;;;;;17.54;50.31;99713.34;5036179;28;20209;-69
2022/10/19 08:48:27;;;;;;;0.60;0.60;;;;;;;17.64;50.05;99709.34;5027183;28;20216;-70
2022/10/19 08:50:55;;;;;;;0.43;0.43;;;;;;;17.80;49.44;99709.38;5030990;28;20305;-70
2022/10/19 08:53:32;;;;;;;0.50;0.50;;;;;;;17.87;47.82;99699.50;5034013;28;20224;-70
2022/10/19 08:56:17;;;;;;;0.80;0.80;;;;;;;17.87;46.56;99699.50;5033876;28;20284;-66
2022/10/19 08:58:57;;;;;;;0.40;0.40;;;;;;;17.95;46.76;99702.50;5034142;28;20583;-68
2022/10/19 09:01:34;;;;;;;0.43;0.43;;;;;;;17.99;46.60;99704.00;5025376;28;20205;-70
2022/10/19 09:04:08;;;;;;;0.60;0.60;;;;;;;17.92;46.04;99697.47;5031058;28;20201;-69
2022/10/19 09:06:40;;;;;;;0.50;0.50;;;;;;;17.89;47.91;99684.69;5029417;28;20694;-70
2022/10/19 09:09:12;;;;;;;0.50;0.50;;;;;;;18.01;47.32;99687.44;5013065;28;20206;-70
2022/10/19 09:11:44;;;;;;;0.40;0.40;;;;;;;18.23;47.65;99687.03;5011983;28;20212;-70
2022/10/19 09:14:16;;;;;;;1.13;1.13;;;;;;;18.35;46.19;99681.19;4999844;28;20229;-70
2022/10/19 09:16:43;;;;;;;0.37;0.37;;;;;;;18.42;45.27;99687.66;5009534;28;20206;-69
2022/10/19 09:19:24;;;;;;;0.60;0.60;;;;;;;18.63;46.19;99689.06;5009513;28;20210;-70
2022/10/19 09:21:55;;;;;;;0.40;0.40;;;;;;;18.85;43.77;99686.88;5009162;28;20201;-69
2022/10/19 09:24:31;;;;;;;0.40;0.40;;;;;;;18.98;41.73;99683.53;5011283;28;20206;-69
2022/10/19 09:27:00;;;;;;;0.60;0.60;;;;;;;19.12;41.64;99688.75;5012093;28;20224;-70
2022/10/19 09:29:35;;;;;;;0.63;0.63;;;;;;;19.24;40.89;99677.59;5011609;28;20202;-70
2022/10/19 09:32:05;;;;;;;0.40;0.40;;;;;;;19.38;40.82;99670.63;5022128;28;20781;-70
2022/10/19 09:34:37;;;;;;;0.40;0.40;;;;;;;19.43;40.20;99656.53;5011274;28;20222;-70
2022/10/19 09:37:04;;;;;;;0.30;0.30;;;;;;;19.61;41.82;99671.81;5012289;28;20206;-70
2022/10/19 09:39:31;;;;;;;0.60;0.60;;;;;;;19.62;39.72;99651.84;5018153;28;20789;-71
2022/10/19 09:42:01;;;;;;;0.50;0.50;;;;;;;19.81;40.71;99662.75;5021122;28;20202;-71
2022/10/19 09:44:28;;;;;;;0.40;0.40;;;;;;;19.81;38.85;99647.97;5021465;28;20194;-70
2022/10/19 09:47:01;;;;;;;0.40;0.40;;;;;;;19.90;38.03;99652.59;5018278;28;20670;-69
2022/10/19 09:49:44;;;;;;;0.40;0.40;;;;;;;19.93;38.55;99647.19;5015981;28;20206;-69
2022/10/19 09:52:29;;;;;;;0.30;0.30;;;;;;;20.06;38.45;99651.63;5011339;28;20226;-70
2022/10/19 09:55:01;;;;;;;0.47;0.47;;;;;;;20.16;38.08;99647.47;5010061;28;20609;-71
2022/10/19 09:57:28;;;;;;;0.33;0.33;;;;;;;20.27;38.14;99645.88;5012274;28;20204;-71
2022/10/19 09:59:55;;;;;;;0.33;0.33;;;;;;;20.30;36.54;99643.06;5013503;28;20202;-69
2022/10/19 10:02:29;;;;;;;0.40;0.40;;;;;;;20.31;36.28;99628.28;5018339;28;20250;-70
2022/10/19 10:05:05;;;;;;;0.37;0.37;;;;;;;20.26;37.14;99638.09;5020238;28;20204;-70
2022/10/19 10:07:35;;;;;;;0.40;0.40;;;;;;;20.43;38.24;99627.44;5024735;28;20226;-70
2022/10/19 10:10:02;;;;;;;0.47;0.47;;;;;;;20.53;39.00;99623.28;5029967;28;20215;-76
2022/10/19 10:12:29;;;;;;;0.47;0.47;;;;;;;20.61;38.51;99618.41;5029867;28;20706;-75
2022/10/19 10:14:56;;;;;;;0.40;0.40;;;;;;;20.62;37.92;99625.28;5024786;28;20225;-71
2022/10/19 10:17:29;;;;;;;0.30;0.30;;;;;;;20.67;36.78;99618.00;5026726;28;20812;-71
2022/10/19 10:20:17;;;;;;;0.40;0.40;;;;;;;20.69;38.25;99615.25;5028307;28;20266;-71
2022/10/19 10:22:52;;;;;;;0.50;0.50;;;;;;;20.62;36.26;99591.41;5029142;28;20652;-71
2022/10/19 10:25:20;;;;;;;0.40;0.40;;;;;;;20.76;36.50;99601.72;5029657;28;20736;-71
2022/10/19 10:27:55;;;;;;;0.50;0.50;;;;;;;20.87;38.07;99596.59;5033774;28;20203;-71
2022/10/19 10:30:22;;;;;;;0.60;0.60;;;;;;;20.81;37.53;99575.34;5031365;28;20216;-70
2022/10/19 10:32:51;;;;;;;0.60;0.60;;;;;;;20.95;35.72;99594.31;5026882;28;20202;-70
2022/10/19 10:35:24;;;;;;;0.60;0.60;;;;;;;21.06;35.92;99582.28;5029694;28;20199;-70
2022/10/19 10:37:51;;;;;;;0.50;0.50;;;;;;;21.11;36.13;99580.22;5029888;28;20204;-70
2022/10/19 10:40:24;;;;;;;0.40;0.40;;;;;;;21.11;35.19;99577.63;5030973;28;20205;-70
2022/10/19 10:42:52;;;;;;;0.50;0.50;;;;;;;21.21;36.13;99570.81;5032508;28;20256;-71
2022/10/19 10:45:23;;;;;;;0.50;0.50;;;;;;;21.31;36.16;99569.22;5031594;28;20208;-70
2022/10/19 10:47:51;;;;;;;0.40;0.40;;;;;;;21.31;34.72;99564.84;5034053;28;20198;-70
2022/10/19 10:50:23;;;;;;;0.30;0.30;;;;;;;21.26;34.78;99555.69;5030010;28;20224;-70
2022/10/19 10:52:58;;;;;;;0.40;0.40;;;;;;;21.33;35.33;99557.72;5028390;28;20214;-70
2022/10/19 10:55:26;;;;;;;0.60;0.60;;;;;;;21.38;37.14;99547.81;5028183;28;20203;-69
2022/10/19 10:58:02;;;;;;;0.40;0.40;;;;;;;21.39;36.75;99543.41;5030290;28;20300;-70
2022/10/19 11:00:30;;;;;;;0.50;0.50;;;;;;;21.61;35.66;99553.97;5031913;28;20297;-70
2022/10/19 11:03:09;;;;;;;0.60;0.60;;;;;;;21.59;34.67;99545.41;5030658;28;20216;-69
2022/10/19 11:05:43;;;;;;;0.37;0.37;;;;;;;21.59;37.99;99542.78;5030470;28;20255;-69
2022/10/19 11:08:24;;;;;;;0.30;0.30;;;;;;;21.62;35.76;99537.34;5031388;28;20211;-68
2022/10/19 11:10:59;;;;;;;0.40;0.40;;;;;;;21.71;34.83;99539.28;5030625;28;20595;-69
2022/10/19 11:13:36;;;;;;;0.40;0.40;;;;;;;21.72;34.03;99538.34;5033145;28;20231;-70
2022/10/19 11:16:12;;;;;;;0.57;0.57;;;;;;;21.72;34.77;99525.31;5035012;28;20271;-69
2022/10/19 11:18:43;;;;;;;0.50;0.50;;;;;;;21.82;35.54;99530.66;5027090;28;20624;-69
2022/10/19 11:21:15;;;;;;;0.40;0.40;;;;;;;21.88;35.99;99531.03;5027110;28;20216;-70
2022/10/19 11:24:01;;;;;;;0.30;0.30;;;;;;;21.94;35.19;99528.00;5025569;28;20216;-70
2022/10/19 11:26:41;;;;;;;0.30;0.30;;;;;;;21.76;34.42;99526.75;5024884;28;20623;-69
2022/10/19 11:29:29;;;;;;;0.30;0.30;;;;;;;21.88;33.97;99523.22;5030001;28;20204;-70
2022/10/19 11:31:57;;;;;;;0.30;0.30;;;;;;;21.90;34.75;99513.53;5027970;28;20209;-70
2022/10/19 11:34:49;;;;;;;0.40;0.40;;;;;;;22.03;34.68;99517.84;5031647;28;20238;-70
2022/10/19 11:37:25;;;;;;;0.30;0.30;;;;;;;21.95;33.89;99500.97;5031862;28;20202;-68
2022/10/19 11:40:05;;;;;;;0.40;0.40;;;;;;;21.81;34.29;99495.09;5029325;28;20907;-70
2022/10/19 11:42:48;;;;;;;0.40;0.40;;;;;;;21.93;34.21;99497.66;5029222;28;20762;-69
2022/10/19 11:45:27;;;;;;;0.50;0.50;;;;;;;22.07;35.23;99487.94;5024855;28;20577;-70
2022/10/19 11:48:13;;;;;;;0.30;0.30;;;;;;;22.18;33.90;99486.16;5029849;28;20195;-70
2022/10/19 11:50:48;;;;;;;0.33;0.33;;;;;;;22.17;34.75;99488.88;5029406;28;20213;-70